Time;durP1;ratioP1;P1;durP2;ratioP2;P2;SDS_P1;SDS_P2;PMS_P1;PMS_P2;Temp;Humidity;BMP_temperature;BMP_pressure;BME280_temperature;BME280_humidity;BME280_pressure;Samples;Min_cycle;Max_cycle;Signal;HPM_P1;HPM_P2
2021/12/26 00:00:22;;;;;;;10.30;7.77;;;-7.80;99.90;;;;;;5094859;28;20406;-79
2021/12/26 00:02:48;;;;;;;18.83;13.03;;;-7.70;99.90;;;;;;5094940;28;20474;-79
2021/12/26 00:05:15;;;;;;;11.87;8.90;;;-7.80;99.90;;;;;;5094792;28;20398;-79
2021/12/26 00:07:40;;;;;;;11.63;8.00;;;-7.80;99.90;;;;;;5094471;28;20414;-79
2021/12/26 00:10:09;;;;;;;10.23;8.97;;;-7.90;99.90;;;;;;5094580;28;20990;-79
2021/12/26 00:12:35;;;;;;;17.20;9.87;;;-7.90;99.90;;;;;;5094609;28;20165;-79
2021/12/26 00:15:02;;;;;;;10.37;8.17;;;-8.00;99.90;;;;;;5094568;28;20417;-79
2021/12/26 00:17:27;;;;;;;15.83;9.63;;;-8.00;99.90;;;;;;5093904;28;20281;-79
2021/12/26 00:19:53;;;;;;;10.20;9.00;;;-8.00;99.90;;;;;;5094558;28;20861;-79
2021/12/26 00:22:19;;;;;;;15.07;10.70;;;-8.00;99.90;;;;;;5094053;28;20668;-79
2021/12/26 00:24:46;;;;;;;18.73;9.63;;;-8.20;99.90;;;;;;5094408;28;20184;-79
2021/12/26 00:27:12;;;;;;;11.30;8.63;;;-8.20;99.90;;;;;;5093292;28;20259;-79
2021/12/26 00:29:38;;;;;;;10.83;9.03;;;-8.30;99.90;;;;;;5094400;28;20406;-79
2021/12/26 00:32:06;;;;;;;16.67;10.10;;;-8.10;99.90;;;;;;5093067;28;20769;-79
2021/12/26 00:34:32;;;;;;;17.90;11.50;;;-8.00;99.90;;;;;;5094229;28;20168;-79
2021/12/26 00:36:58;;;;;;;10.03;8.43;;;-8.10;99.90;;;;;;5093745;28;20414;-79
2021/12/26 00:39:35;;;;;;;11.33;9.60;;;-8.20;99.90;;;;;;5131792;27;20525;-80
2021/12/26 00:42:01;;;;;;;12.80;9.83;;;-8.40;99.90;;;;;;5131579;28;20800;-81
2021/12/26 00:44:27;;;;;;;9.27;7.30;;;-8.20;99.90;;;;;;5131428;28;20415;-80
2021/12/26 00:46:53;;;;;;;10.93;8.13;;;-8.20;99.90;;;;;;5113089;28;20765;-80
2021/12/26 00:49:20;;;;;;;11.27;9.00;;;-8.40;99.90;;;;;;5131326;28;20408;-80
2021/12/26 00:51:46;;;;;;;9.50;8.50;;;-7.90;99.90;;;;;;5131343;28;20408;-80
2021/12/26 00:54:12;;;;;;;13.20;8.93;;;;;;;;;;5130989;28;20470;-78
2021/12/26 00:56:38;;;;;;;12.13;8.90;;;-8.60;99.90;;;;;;5131218;28;20401;-77
2021/12/26 00:59:04;;;;;;;7.90;7.30;;;-8.30;99.90;;;;;;5131154;28;20472;-78
2021/12/26 01:01:30;;;;;;;10.93;7.47;;;-8.00;99.90;;;;;;5131098;28;20227;-78
2021/12/26 01:03:56;;;;;;;11.60;8.60;;;-8.30;99.90;;;;;;5112730;28;20420;-79
2021/12/26 01:06:23;;;;;;;8.00;7.20;;;-8.70;99.90;;;;;;5131103;28;20428;-79
2021/12/26 01:08:51;;;;;;;19.60;9.57;;;-8.20;99.90;;;;;;5130673;28;20166;-79
2021/12/26 01:11:32;;;;;;;10.13;9.23;;;-8.40;99.90;;;;;;5131006;28;20954;-79
2021/12/26 01:13:58;;;;;;;17.53;10.90;;;-8.40;99.90;;;;;;5130927;28;20409;-79
2021/12/26 01:16:25;;;;;;;20.73;10.30;;;-8.30;99.90;;;;;;5130880;28;20445;-79
2021/12/26 01:18:52;;;;;;;14.73;8.37;;;-8.30;99.90;;;;;;5130752;28;20489;-79
2021/12/26 01:21:20;;;;;;;16.03;8.40;;;-8.40;99.90;;;;;;5130792;28;20415;-79
2021/12/26 01:23:57;;;;;;;15.13;7.13;;;-8.30;99.90;;;;;;5130304;28;20412;-79
2021/12/26 01:26:24;;;;;;;9.17;5.97;;;-8.20;99.90;;;;;;5130655;28;20789;-79
2021/12/26 01:28:50;;;;;;;6.93;6.13;;;-8.10;99.90;;;;;;5130555;28;20406;-79
2021/12/26 01:31:19;;;;;;;14.17;8.90;;;;;;;;;;5130584;28;20400;-79
2021/12/26 01:33:50;;;;;;;18.93;7.47;;;-8.10;99.90;;;;;;5130530;28;20503;-79
2021/12/26 01:36:16;;;;;;;8.93;8.10;;;-8.20;99.90;;;;;;5130479;28;20604;-79
2021/12/26 01:38:42;;;;;;;10.50;7.03;;;;;;;;;;5129767;28;20479;-79
2021/12/26 01:41:10;;;;;;;17.40;7.53;;;-8.50;99.90;;;;;;5130394;28;20793;-79
2021/12/26 01:43:38;;;;;;;10.70;7.77;;;-8.30;99.90;;;;;;5130315;28;20804;-79
2021/12/26 01:46:05;;;;;;;15.27;7.53;;;-8.20;99.90;;;;;;5130230;28;20434;-79
2021/12/26 01:48:31;;;;;;;8.77;7.40;;;;;;;;;;5130201;28;20420;-79
2021/12/26 01:50:58;;;;;;;11.90;7.77;;;;;;;;;;5114807;28;20409;-79
2021/12/26 01:53:25;;;;;;;7.40;6.70;;;;;;;;;;5116061;28;20469;-79
2021/12/26 01:55:53;;;;;;;8.43;6.83;;;-8.20;99.90;;;;;;5115055;28;20416;-79
2021/12/26 01:58:25;;;;;;;8.67;6.60;;;-8.40;99.90;;;;;;5116312;28;20465;-79
2021/12/26 02:00:54;;;;;;;16.87;7.60;;;-8.60;99.90;;;;;;5097837;28;20406;-79
2021/12/26 02:03:20;;;;;;;10.90;6.10;;;-8.60;99.90;;;;;;5098028;28;20425;-79
2021/12/26 02:05:46;;;;;;;9.70;8.67;;;-8.70;99.90;;;;;;5097868;28;20432;-79
2021/12/26 02:08:12;;;;;;;14.97;9.27;;;-8.80;99.90;;;;;;5115793;28;20228;-79
2021/12/26 02:10:38;;;;;;;6.30;5.53;;;-8.80;99.90;;;;;;5116160;28;20637;-79
2021/12/26 02:13:04;;;;;;;8.23;6.67;;;-8.80;99.90;;;;;;5114877;28;20437;-79
2021/12/26 02:15:30;;;;;;;5.67;5.20;;;-8.80;99.90;;;;;;5116065;28;20643;-81
2021/12/26 02:17:56;;;;;;;7.43;5.70;;;-8.80;99.90;;;;;;5115893;28;20460;-79
2021/12/26 02:23:21;;;;;;;12.33;9.17;;;-8.50;99.90;;;;;;5115642;28;20437;-79
2021/12/26 02:28:31;;;;;;;4.47;3.97;;;-8.40;99.90;;;;;;5115842;28;20924;-79
2021/12/26 02:30:58;;;;;;;8.33;5.10;;;-8.40;99.90;;;;;;5115719;28;20517;-79
2021/12/26 02:33:23;;;;;;;6.77;4.90;;;-8.50;99.90;;;;;;5115704;28;20172;-79
2021/12/26 02:35:50;;;;;;;6.97;5.40;;;-8.50;99.90;;;;;;5115684;28;20401;-79
2021/12/26 02:38:17;;;;;;;9.63;5.00;;;-8.60;99.90;;;;;;5114941;28;20489;-79
2021/12/26 02:40:46;;;;;;;5.43;4.30;;;-8.80;99.90;;;;;;5115597;28;20467;-79
2021/12/26 02:43:14;;;;;;;5.47;5.00;;;-8.90;99.90;;;;;;5115414;28;20744;-79
2021/12/26 02:45:40;;;;;;;5.70;5.07;;;-8.60;99.90;;;;;;5115474;28;20432;-79
2021/12/26 02:48:07;;;;;;;4.47;4.10;;;-8.50;99.90;;;;;;5115392;28;20401;-79
2021/12/26 02:50:33;;;;;;;5.47;4.97;;;-8.60;99.90;;;;;;5115439;28;20535;-79
2021/12/26 02:53:02;;;;;;;5.87;5.30;;;-8.80;99.90;;;;;;5115059;28;20489;-79
2021/12/26 02:55:28;;;;;;;5.07;4.67;;;-8.90;99.90;;;;;;5115268;28;20163;-79
2021/12/26 02:57:56;;;;;;;6.07;3.67;;;-9.10;99.90;;;;;;5115194;28;20461;-79
2021/12/26 03:00:25;;;;;;;4.93;4.17;;;-9.00;99.90;;;;;;5114914;28;20760;-79
2021/12/26 03:02:55;;;;;;;5.07;4.57;;;-9.00;99.90;;;;;;5114433;28;20466;-79
2021/12/26 03:05:25;;;;;;;7.50;6.73;;;-9.00;99.90;;;;;;5115181;28;20405;-79
2021/12/26 03:07:51;;;;;;;4.77;4.43;;;-8.90;99.90;;;;;;5096504;28;20449;-79
2021/12/26 03:10:23;;;;;;;6.20;5.17;;;-8.80;99.90;;;;;;5115086;28;20920;-79
2021/12/26 03:12:51;;;;;;;6.60;5.83;;;-8.80;99.90;;;;;;5115005;28;20175;-79
2021/12/26 03:15:16;;;;;;;6.40;4.93;;;-8.80;99.90;;;;;;5096612;28;20748;-79
2021/12/26 03:17:42;;;;;;;5.07;4.63;;;-8.70;99.90;;;;;;5116240;28;20460;-79
2021/12/26 03:20:13;;;;;;;8.23;7.40;;;-8.50;99.90;;;;;;5096647;28;20172;-79
2021/12/26 03:22:39;;;;;;;5.40;4.90;;;-8.60;99.90;;;;;;5096328;28;20168;-79
2021/12/26 03:25:13;;;;;;;3.93;3.73;;;-8.50;99.90;;;;;;5114796;28;20414;-79
2021/12/26 03:27:39;;;;;;;5.67;3.90;;;-8.60;99.90;;;;;;5114522;28;20452;-79
2021/12/26 03:30:07;;;;;;;4.03;3.73;;;-8.60;99.90;;;;;;5114633;28;20685;-79
2021/12/26 03:32:33;;;;;;;5.57;5.07;;;-8.50;99.90;;;;;;5114651;28;20960;-79
2021/12/26 03:34:58;;;;;;;4.47;4.17;;;-8.50;99.90;;;;;;5114485;28;20445;-79
2021/12/26 03:37:24;;;;;;;4.90;2.97;;;-8.70;99.90;;;;;;5113805;28;20445;-79
2021/12/26 03:39:49;;;;;;;9.10;3.70;;;-8.90;99.90;;;;;;5114458;28;20171;-79
2021/12/26 03:42:15;;;;;;;5.10;4.60;;;-8.60;99.90;;;;;;5114380;28;20664;-79
2021/12/26 03:44:41;;;;;;;4.57;4.17;;;-8.50;99.90;;;;;;5114372;28;20195;-79
2021/12/26 03:47:06;;;;;;;4.63;4.33;;;-8.50;99.90;;;;;;5114263;28;20537;-79
2021/12/26 03:49:33;;;;;;;5.07;4.77;;;-8.50;99.90;;;;;;5114206;28;20167;-80
2021/12/26 03:51:59;;;;;;;3.80;3.53;;;-8.40;99.90;;;;;;5113734;28;20271;-79
2021/12/26 03:54:24;;;;;;;4.37;3.97;;;-8.40;99.90;;;;;;5114117;28;20445;-79
2021/12/26 03:56:50;;;;;;;4.20;3.23;;;-8.40;99.90;;;;;;5112789;28;20430;-79
2021/12/26 03:59:16;;;;;;;6.70;3.70;;;-8.40;99.90;;;;;;5113965;28;20215;-79
2021/12/26 04:01:42;;;;;;;4.17;3.77;;;-8.40;99.90;;;;;;5114020;28;20174;-79
2021/12/26 04:04:07;;;;;;;3.60;3.30;;;-8.40;99.90;;;;;;5114093;28;20207;-79
2021/12/26 04:06:33;;;;;;;3.73;2.57;;;-8.30;99.90;;;;;;5112346;28;20824;-79
2021/12/26 04:08:59;;;;;;;2.23;2.00;;;-8.30;99.90;;;;;;5113931;28;20171;-79
2021/12/26 04:11:25;;;;;;;3.20;2.90;;;-8.30;99.90;;;;;;5112674;28;20183;-79
2021/12/26 04:13:50;;;;;;;4.00;3.57;;;-8.40;99.90;;;;;;5095493;28;20515;-79
2021/12/26 04:16:16;;;;;;;3.70;2.93;;;-8.40;99.90;;;;;;5112566;28;20418;-79
2021/12/26 04:18:42;;;;;;;2.90;2.70;;;-8.40;99.90;;;;;;5113742;28;20472;-79
2021/12/26 04:21:08;;;;;;;2.93;2.73;;;-8.50;99.90;;;;;;5113767;28;20203;-79
2021/12/26 04:23:35;;;;;;;4.73;3.10;;;-8.50;99.90;;;;;;5113415;28;20176;-79
2021/12/26 04:26:00;;;;;;;4.20;3.77;;;-8.40;99.90;;;;;;5113688;28;20292;-79
2021/12/26 04:28:26;;;;;;;4.60;2.87;;;-8.40;99.90;;;;;;5113685;28;20449;-79
2021/12/26 04:30:53;;;;;;;5.73;5.33;;;-8.50;99.90;;;;;;5113673;28;20901;-79
2021/12/26 04:33:20;;;;;;;3.00;2.67;;;-8.50;99.90;;;;;;5113558;28;20457;-79
2021/12/26 04:35:46;;;;;;;3.20;2.90;;;-8.50;99.90;;;;;;5113465;28;20402;-79
2021/12/26 04:38:11;;;;;;;3.67;3.37;;;-8.60;99.90;;;;;;5112895;28;20476;-79
2021/12/26 04:40:37;;;;;;;7.43;4.27;;;-8.60;99.90;;;;;;5113874;28;20160;-79
2021/12/26 04:43:03;;;;;;;2.80;2.70;;;-8.70;99.90;;;;;;5113556;28;20171;-79
2021/12/26 04:45:29;;;;;;;3.07;2.60;;;-8.90;99.90;;;;;;5113514;28;20178;-79
2021/12/26 04:47:54;;;;;;;2.77;2.63;;;-9.00;99.90;;;;;;5113521;28;20732;-80
2021/12/26 04:50:22;;;;;;;6.57;4.03;;;-9.00;99.90;;;;;;5113469;28;20176;-79
2021/12/26 04:52:49;;;;;;;3.70;3.47;;;-9.00;99.90;;;;;;5113142;28;20159;-79
2021/12/26 04:55:18;;;;;;;3.17;2.87;;;-9.00;99.90;;;;;;5113277;28;20413;-79
2021/12/26 04:57:43;;;;;;;3.00;2.70;;;-9.10;99.90;;;;;;5113315;28;20457;-79
2021/12/26 05:00:13;;;;;;;3.63;3.07;;;-9.00;99.90;;;;;;5095116;28;20784;-79
2021/12/26 05:02:39;;;;;;;7.90;3.43;;;-9.00;99.90;;;;;;5113242;28;20616;-79
2021/12/26 05:05:08;;;;;;;2.80;2.60;;;-8.90;99.90;;;;;;5113279;28;20525;-79
2021/12/26 05:07:34;;;;;;;8.17;4.30;;;-8.70;99.90;;;;;;5112840;28;20413;-79
2021/12/26 05:09:59;;;;;;;4.63;3.47;;;-8.80;99.90;;;;;;5113254;28;20417;-79
2021/12/26 05:12:25;;;;;;;5.03;3.03;;;-8.70;99.90;;;;;;5113307;28;20422;-79
2021/12/26 05:14:52;;;;;;;8.03;3.53;;;-9.00;99.90;;;;;;5113556;28;20171;-79
2021/12/26 05:17:18;;;;;;;4.60;3.53;;;-8.90;99.90;;;;;;5113099;28;20167;-79
2021/12/26 05:19:44;;;;;;;4.23;3.27;;;-8.80;99.90;;;;;;5113232;28;20901;-79
2021/12/26 05:22:09;;;;;;;2.87;2.70;;;-8.80;99.90;;;;;;5094539;28;20412;-79
2021/12/26 05:24:35;;;;;;;3.67;3.40;;;-9.10;99.90;;;;;;5114086;28;20167;-79
2021/12/26 05:27:01;;;;;;;2.80;2.60;;;-9.10;99.90;;;;;;5117050;28;20163;-79
2021/12/26 05:29:27;;;;;;;6.17;3.83;;;-9.30;99.90;;;;;;5116964;28;20488;-79
2021/12/26 05:31:53;;;;;;;4.00;3.60;;;-9.30;99.90;;;;;;5116899;28;20271;-79
2021/12/26 05:34:19;;;;;;;4.60;4.07;;;-9.20;99.90;;;;;;5116874;28;20413;-79
2021/12/26 05:36:45;;;;;;;7.83;4.10;;;-9.40;99.90;;;;;;5116573;28;20413;-79
2021/12/26 05:39:11;;;;;;;3.20;2.90;;;-9.10;99.90;;;;;;5116542;28;20472;-79
2021/12/26 05:41:36;;;;;;;3.17;2.87;;;-9.30;99.90;;;;;;5116777;28;20650;-80
2021/12/26 05:44:02;;;;;;;2.93;2.37;;;-9.50;99.90;;;;;;5115403;28;20470;-79
2021/12/26 05:46:28;;;;;;;2.97;2.77;;;-9.50;99.90;;;;;;5116539;28;20187;-79
2021/12/26 05:48:54;;;;;;;2.20;2.10;;;-9.40;99.90;;;;;;5115326;28;20909;-79
2021/12/26 05:51:19;;;;;;;2.03;1.93;;;-9.30;99.90;;;;;;5116198;28;20178;-79
2021/12/26 05:53:45;;;;;;;3.57;3.30;;;-9.20;99.90;;;;;;5116263;28;20202;-79
2021/12/26 05:56:10;;;;;;;2.13;2.03;;;-9.20;99.90;;;;;;5116572;28;20182;-79
2021/12/26 05:58:36;;;;;;;4.93;3.53;;;-9.30;99.90;;;;;;5116296;28;20211;-79
2021/12/26 06:01:02;;;;;;;4.20;3.40;;;-9.20;99.90;;;;;;5116328;28;20568;-79
2021/12/26 06:03:28;;;;;;;3.17;3.03;;;-9.40;99.90;;;;;;5116301;28;20259;-79
2021/12/26 06:05:53;;;;;;;4.47;4.03;;;-9.50;99.90;;;;;;5116282;28;20501;-79
2021/12/26 06:08:19;;;;;;;2.87;2.67;;;-9.60;99.90;;;;;;5115916;28;20539;-79
2021/12/26 06:10:45;;;;;;;2.80;2.67;;;-9.40;99.90;;;;;;5116197;28;20667;-79
2021/12/26 06:13:10;;;;;;;4.13;3.77;;;-9.30;99.90;;;;;;5116203;28;20525;-79
2021/12/26 06:15:36;;;;;;;5.17;2.83;;;-9.20;99.90;;;;;;5116138;28;20171;-80
2021/12/26 06:18:02;;;;;;;3.10;2.80;;;-9.10;99.90;;;;;;5115954;28;20211;-82
2021/12/26 06:20:28;;;;;;;5.40;3.83;;;-9.30;99.90;;;;;;5115997;28;20655;-80
2021/12/26 06:22:54;;;;;;;6.47;4.33;;;-9.60;99.90;;;;;;5115656;28;20449;-79
2021/12/26 06:25:20;;;;;;;4.10;3.80;;;-9.80;99.90;;;;;;5115916;28;20402;-79
2021/12/26 06:27:45;;;;;;;3.73;3.43;;;-9.60;99.90;;;;;;5115862;28;20175;-79
2021/12/26 06:30:12;;;;;;;5.00;4.60;;;-9.70;99.90;;;;;;5115843;28;20170;-79
2021/12/26 06:32:38;;;;;;;4.07;3.70;;;-9.70;99.90;;;;;;5115683;28;20179;-80
2021/12/26 06:35:04;;;;;;;5.47;2.83;;;-9.80;99.90;;;;;;5115600;28;20417;-79
2021/12/26 06:37:31;;;;;;;3.80;3.60;;;-9.90;99.90;;;;;;5114987;28;20207;-79
2021/12/26 06:39:59;;;;;;;2.70;2.60;;;-9.90;99.90;;;;;;5115642;28;20518;-79
2021/12/26 06:42:25;;;;;;;2.93;2.83;;;-9.70;99.90;;;;;;5115575;28;20405;-79
2021/12/26 06:44:51;;;;;;;5.20;4.87;;;-9.70;99.90;;;;;;5115406;28;20457;-79
2021/12/26 06:47:17;;;;;;;3.17;3.00;;;-9.70;99.90;;;;;;5115439;28;20438;-79
2021/12/26 06:49:43;;;;;;;2.93;2.50;;;-9.80;99.90;;;;;;5115428;28;20613;-79
2021/12/26 06:52:09;;;;;;;4.83;4.33;;;-9.70;99.90;;;;;;5115080;28;20497;-79
2021/12/26 06:54:36;;;;;;;3.80;2.50;;;-9.50;99.90;;;;;;5115289;28;20188;-79
2021/12/26 06:57:03;;;;;;;3.20;2.97;;;-9.50;99.90;;;;;;5115297;28;20221;-79
2021/12/26 06:59:29;;;;;;;4.20;2.97;;;-9.40;99.90;;;;;;5115085;28;20473;-79
2021/12/26 07:01:54;;;;;;;3.47;3.27;;;-9.40;99.90;;;;;;5115259;28;20783;-79
2021/12/26 07:04:20;;;;;;;3.20;3.00;;;-9.40;99.90;;;;;;5115214;28;20504;-79
2021/12/26 07:06:46;;;;;;;2.77;2.53;;;-9.40;99.90;;;;;;5113489;28;20977;-81
2021/12/26 07:09:12;;;;;;;4.80;4.50;;;-9.70;99.90;;;;;;5115039;28;20418;-79
2021/12/26 07:11:37;;;;;;;3.33;3.03;;;-9.80;99.90;;;;;;5096735;28;20186;-80
2021/12/26 07:14:03;;;;;;;2.80;2.50;;;-9.90;99.90;;;;;;5096695;28;20175;-80
2021/12/26 07:16:29;;;;;;;3.07;2.77;;;-9.80;99.90;;;;;;5114967;28;20174;-80
2021/12/26 07:18:54;;;;;;;2.50;2.40;;;-9.70;99.90;;;;;;5114618;28;20214;-79
2021/12/26 07:21:20;;;;;;;3.90;3.70;;;-9.80;99.90;;;;;;5114477;28;20511;-80
2021/12/26 07:23:45;;;;;;;2.50;2.40;;;-9.80;99.90;;;;;;5114886;28;20202;-80
2021/12/26 07:26:11;;;;;;;3.93;3.37;;;-9.60;99.90;;;;;;5114762;28;20175;-79
2021/12/26 07:28:37;;;;;;;3.33;3.13;;;-9.70;99.90;;;;;;5114642;28;20171;-78
2021/12/26 07:31:03;;;;;;;2.90;2.60;;;-9.70;99.90;;;;;;5114544;28;20573;-80
2021/12/26 07:33:28;;;;;;;3.50;3.27;;;-9.70;99.90;;;;;;5096340;28;20179;-79
2021/12/26 07:35:54;;;;;;;3.37;2.37;;;-9.90;99.90;;;;;;5114181;28;20160;-79
2021/12/26 07:38:19;;;;;;;2.33;2.23;;;-9.80;99.90;;;;;;5114250;28;20693;-79
2021/12/26 07:40:48;;;;;;;2.37;2.27;;;-9.90;99.90;;;;;;5114504;28;20175;-79
2021/12/26 07:43:14;;;;;;;3.63;3.33;;;-9.80;99.90;;;;;;5114450;28;20195;-79
2021/12/26 07:45:40;;;;;;;2.43;2.33;;;-9.60;99.90;;;;;;5114441;28;20474;-79
2021/12/26 07:48:06;;;;;;;3.87;3.57;;;-9.80;99.90;;;;;;5113752;28;20466;-79
2021/12/26 07:50:32;;;;;;;10.50;4.67;;;-9.70;99.90;;;;;;5114328;28;20417;-79
2021/12/26 07:53:04;;;;;;;3.70;2.80;;;-9.60;99.90;;;;;;5113854;28;20163;-79
2021/12/26 07:55:30;;;;;;;7.80;4.90;;;-9.50;99.90;;;;;;5114201;28;20401;-79
2021/12/26 07:57:55;;;;;;;6.30;5.20;;;-9.30;99.90;;;;;;5114030;28;20468;-80
2021/12/26 08:00:21;;;;;;;5.47;4.87;;;-9.30;99.90;;;;;;5114094;28;20412;-79
2021/12/26 08:02:48;;;;;;;11.80;6.83;;;-9.30;99.90;;;;;;5114158;28;20179;-79
2021/12/26 08:05:15;;;;;;;13.00;4.40;;;-9.20;99.90;;;;;;5114018;28;20874;-79
2021/12/26 08:07:41;;;;;;;3.57;3.27;;;-9.20;99.90;;;;;;5113637;28;20406;-79
2021/12/26 08:10:07;;;;;;;3.37;2.30;;;-9.20;99.90;;;;;;5113861;28;20417;-79
2021/12/26 08:12:32;;;;;;;3.07;2.87;;;-9.40;99.90;;;;;;5113918;28;20179;-79
2021/12/26 08:15:01;;;;;;;3.87;3.40;;;-9.30;99.90;;;;;;5112556;28;20829;-79
2021/12/26 08:17:28;;;;;;;6.17;3.17;;;-9.20;99.90;;;;;;5113768;28;20163;-79
2021/12/26 08:19:53;;;;;;;2.43;2.23;;;-9.10;99.90;;;;;;5113751;28;20555;-79
2021/12/26 08:22:19;;;;;;;2.73;2.53;;;-9.30;99.90;;;;;;5113335;28;20442;-79
2021/12/26 08:24:44;;;;;;;3.60;3.37;;;-9.30;99.90;;;;;;5113710;28;20175;-79
2021/12/26 08:27:10;;;;;;;5.37;4.20;;;-9.20;99.90;;;;;;5095571;28;20171;-79
2021/12/26 08:29:35;;;;;;;5.37;4.87;;;-9.10;99.90;;;;;;5113667;28;20627;-79
2021/12/26 08:32:01;;;;;;;7.07;4.63;;;-9.00;99.90;;;;;;5095411;28;20175;-79
2021/12/26 08:34:27;;;;;;;8.63;4.90;;;-8.80;99.90;;;;;;5114083;28;20175;-79
2021/12/26 08:37:01;;;;;;;5.90;4.67;;;-8.50;99.90;;;;;;5113436;28;20413;-79
2021/12/26 08:39:38;;;;;;;4.20;3.43;;;-8.30;99.90;;;;;;5114742;28;20262;-79
2021/12/26 08:42:06;;;;;;;5.60;3.50;;;-8.30;99.90;;;;;;5095394;28;20813;-79
2021/12/26 08:44:35;;;;;;;3.47;3.23;;;-8.30;99.90;;;;;;5113523;28;20422;-79
2021/12/26 08:47:02;;;;;;;3.50;3.20;;;-8.30;99.90;;;;;;5113458;28;20504;-79
2021/12/26 08:49:28;;;;;;;7.87;3.60;;;-8.20;99.90;;;;;;5113465;28;20912;-80
2021/12/26 08:51:54;;;;;;;7.20;4.47;;;-8.10;99.90;;;;;;5113096;28;20402;-79
2021/12/26 08:54:21;;;;;;;5.43;4.93;;;-8.00;99.90;;;;;;5113454;28;20212;-79
2021/12/26 08:56:47;;;;;;;5.50;3.57;;;-8.00;99.90;;;;;;5113356;28;20164;-79
2021/12/26 08:59:14;;;;;;;3.53;2.60;;;-7.90;99.90;;;;;;5113711;28;20464;-79
2021/12/26 09:01:40;;;;;;;5.10;4.60;;;-7.80;99.90;;;;;;5117533;28;20242;-79
2021/12/26 09:04:06;;;;;;;7.33;4.97;;;-7.80;99.90;;;;;;5117509;28;20456;-79
2021/12/26 09:06:32;;;;;;;5.10;4.43;;;-7.70;99.90;;;;;;5117057;28;20881;-80
2021/12/26 09:08:58;;;;;;;4.30;3.93;;;-7.60;99.90;;;;;;5117336;28;20422;-79
2021/12/26 09:11:24;;;;;;;6.70;6.00;;;-7.60;99.90;;;;;;5117336;28;20178;-80
2021/12/26 09:13:49;;;;;;;3.87;2.70;;;-7.40;99.90;;;;;;5117244;28;20168;-79
2021/12/26 09:16:15;;;;;;;5.70;3.13;;;-7.30;99.90;;;;;;5117203;28;20448;-79
2021/12/26 09:18:41;;;;;;;6.10;3.60;;;-7.20;99.90;;;;;;5116993;28;20203;-79
2021/12/26 09:21:07;;;;;;;5.47;4.97;;;-7.20;99.90;;;;;;5116859;28;20164;-79
2021/12/26 09:23:33;;;;;;;3.83;3.50;;;-7.10;99.90;;;;;;5117147;28;20440;-79
2021/12/26 09:25:58;;;;;;;7.13;3.77;;;-7.10;99.90;;;;;;5117022;28;20409;-79
2021/12/26 09:28:25;;;;;;;4.20;3.07;;;-7.10;99.90;;;;;;5115789;28;20421;-79
2021/12/26 09:30:51;;;;;;;4.27;3.90;;;-7.00;99.90;;;;;;5099060;28;20168;-79
2021/12/26 09:33:19;;;;;;;5.50;4.90;;;-6.90;99.90;;;;;;5116964;28;20397;-79
2021/12/26 09:35:49;;;;;;;8.73;4.50;;;-6.70;99.90;;;;;;5116605;28;20496;-79
2021/12/26 09:38:16;;;;;;;8.10;4.20;;;-6.60;99.90;;;;;;5116520;28;20456;-79
2021/12/26 09:40:42;;;;;;;7.60;3.73;;;-6.50;99.90;;;;;;5117056;28;20420;-80
2021/12/26 09:43:08;;;;;;;4.00;3.70;;;-6.50;99.90;;;;;;5098437;28;20489;-79
2021/12/26 09:45:33;;;;;;;8.47;4.87;;;-6.50;99.90;;;;;;5116743;28;20976;-80
2021/12/26 09:47:59;;;;;;;8.00;4.27;;;-6.40;99.90;;;;;;5116662;28;20178;-80
2021/12/26 09:50:25;;;;;;;4.83;3.90;;;-6.40;99.90;;;;;;5116308;28;20174;-79
2021/12/26 09:52:55;;;;;;;5.50;4.00;;;-6.40;99.90;;;;;;5116535;28;20405;-79
2021/12/26 09:55:22;;;;;;;7.70;4.57;;;-6.40;99.90;;;;;;5116534;28;20827;-79
2021/12/26 09:57:47;;;;;;;9.90;4.20;;;-6.50;99.90;;;;;;5116444;28;20526;-80
2021/12/26 10:00:28;;;;;;;4.53;4.13;;;-6.30;99.90;;;;;;5116484;28;20417;-79
2021/12/26 10:03:11;;;;;;;3.90;3.60;;;-6.10;99.90;;;;;;5116433;28;20167;-79
2021/12/26 10:06:01;;;;;;;3.37;3.20;;;-6.10;99.90;;;;;;5115961;28;20405;-79
2021/12/26 10:08:31;;;;;;;4.23;3.10;;;-6.00;99.90;;;;;;5116249;28;20397;-79
2021/12/26 10:11:15;;;;;;;5.33;3.17;;;-5.90;99.90;;;;;;5115720;28;20456;-79
2021/12/26 10:13:44;;;;;;;5.20;3.80;;;-5.80;99.90;;;;;;5116173;28;20739;-79
2021/12/26 10:16:10;;;;;;;8.13;5.87;;;-5.80;99.90;;;;;;5116134;28;20413;-79
2021/12/26 10:18:39;;;;;;;9.23;4.47;;;-5.80;99.90;;;;;;5116006;28;20457;-79
2021/12/26 10:21:37;;;;;;;4.43;4.03;;;-5.70;99.90;;;;;;5115597;28;20785;-80
2021/12/26 10:24:17;;;;;;;5.37;4.03;;;-5.70;99.90;;;;;;5115936;28;20405;-79
2021/12/26 10:26:52;;;;;;;10.67;4.10;;;-5.70;99.90;;;;;;5115979;28;20564;-80
2021/12/26 10:29:24;;;;;;;3.27;3.07;;;-5.50;99.90;;;;;;5115845;28;20428;-80
2021/12/26 10:31:56;;;;;;;4.13;3.37;;;-5.50;99.90;;;;;;5115862;28;20767;-80
2021/12/26 10:34:30;;;;;;;5.23;4.73;;;-5.30;99.90;;;;;;5115722;28;20412;-79
2021/12/26 10:36:58;;;;;;;5.23;4.10;;;-5.20;99.90;;;;;;5115257;28;20408;-80
2021/12/26 10:39:39;;;;;;;9.73;4.03;;;-5.00;99.90;;;;;;5115311;28;20833;-79
2021/12/26 10:42:08;;;;;;;7.27;5.10;;;-4.70;99.90;;;;;;5115619;28;20409;-80
2021/12/26 10:44:47;;;;;;;6.70;3.93;;;-3.70;99.90;;;;;;5115500;28;20576;-80
2021/12/26 10:47:21;;;;;;;7.53;4.33;;;-2.40;99.90;;;;;;5115474;28;20409;-80
2021/12/26 10:49:50;;;;;;;6.80;3.50;;;-1.40;99.90;;;;;;5115440;28;20411;-80
2021/12/26 10:52:21;;;;;;;5.57;3.17;;;-1.10;99.90;;;;;;5113731;28;20420;-80
2021/12/26 10:54:52;;;;;;;6.37;3.20;;;-1.20;99.90;;;;;;5115320;28;20486;-80
2021/12/26 10:57:22;;;;;;;4.57;2.93;;;-0.70;99.90;;;;;;5096912;28;20434;-80
2021/12/26 11:00:03;;;;;;;3.77;2.90;;;0.10;99.90;;;;;;5115199;28;20469;-80
2021/12/26 11:02:31;;;;;;;9.40;3.50;;;1.10;99.90;;;;;;5115228;28;20494;-80
2021/12/26 11:05:06;;;;;;;4.90;2.83;;;1.60;99.90;;;;;;5096878;28;20480;-78
2021/12/26 11:07:48;;;;;;;5.83;2.17;;;2.80;96.40;;;;;;5114749;28;20479;-78
2021/12/26 11:10:22;;;;;;;3.63;1.70;;;3.60;92.60;;;;;;5114905;28;20456;-78
2021/12/26 11:12:54;;;;;;;4.20;2.17;;;4.50;90.40;;;;;;5114998;28;20812;-78
2021/12/26 11:15:22;;;;;;;4.60;1.20;;;3.80;87.30;;;;;;5114962;28;20496;-78
2021/12/26 11:18:00;;;;;;;2.70;2.27;;;4.30;84.90;;;;;;5114887;28;20452;-78
2021/12/26 11:20:32;;;;;;;2.77;2.40;;;4.20;84.00;;;;;;5114543;28;20417;-78
2021/12/26 11:22:59;;;;;;;3.90;1.60;;;3.40;86.50;;;;;;5095613;28;20456;-79
2021/12/26 11:25:26;;;;;;;3.17;1.90;;;3.30;90.90;;;;;;5114755;28;20422;-78
2021/12/26 11:27:53;;;;;;;4.70;2.37;;;4.10;88.40;;;;;;5114653;28;20444;-79
2021/12/26 11:30:19;;;;;;;4.43;2.97;;;4.30;86.10;;;;;;5114678;28;20478;-79
2021/12/26 11:32:46;;;;;;;3.20;2.00;;;1.80;89.60;;;;;;5114552;28;20499;-78
2021/12/26 11:35:13;;;;;;;3.60;1.93;;;2.50;90.10;;;;;;5114163;28;20412;-78
2021/12/26 11:37:39;;;;;;;5.93;2.40;;;2.50;89.70;;;;;;5114236;28;20462;-78
2021/12/26 11:40:09;;;;;;;4.40;2.30;;;2.70;91.60;;;;;;5114539;28;20473;-78
2021/12/26 11:43:00;;;;;;;4.03;2.10;;;2.60;88.40;;;;;;5096237;28;20777;-78
2021/12/26 11:45:43;;;;;;;3.50;2.50;;;2.80;88.70;;;;;;5114381;28;20916;-79
2021/12/26 11:48:26;;;;;;;2.40;1.50;;;1.30;90.60;;;;;;5114319;28;20443;-79
2021/12/26 11:51:25;;;;;;;2.73;1.20;;;2.10;90.50;;;;;;5112615;28;20451;-78
2021/12/26 11:54:09;;;;;;;2.40;1.67;;;2.30;88.70;;;;;;5112970;28;20513;-79
2021/12/26 11:56:53;;;;;;;3.97;1.80;;;4.10;90.40;;;;;;5114119;28;20408;-78
2021/12/26 11:59:18;;;;;;;3.77;2.20;;;5.70;80.30;;;;;;5114054;28;20824;-80
2021/12/26 12:01:47;;;;;;;4.10;2.30;;;6.30;74.60;;;;;;5112825;28;20412;-79
2021/12/26 12:04:17;;;;;;;3.73;1.70;;;5.40;75.70;;;;;;5095817;28;20178;-79
2021/12/26 12:06:44;;;;;;;3.67;1.93;;;4.80;78.70;;;;;;5113635;28;20498;-79
2021/12/26 12:09:37;;;;;;;4.07;2.43;;;4.40;78.80;;;;;;5095677;28;20827;-79
2021/12/26 12:12:05;;;;;;;4.17;2.70;;;4.90;79.00;;;;;;5114045;28;20404;-82
2021/12/26 12:14:54;;;;;;;3.80;1.77;;;6.70;95.00;;;;;;5113838;28;20408;-80
2021/12/26 12:17:29;;;;;;;3.33;2.40;;;6.60;77.50;;;;;;5113890;28;20409;-79
2021/12/26 12:20:12;;;;;;;4.07;2.17;;;6.80;99.90;;;;;;5113758;28;20531;-79
2021/12/26 12:22:58;;;;;;;7.10;2.30;;;5.50;99.90;;;;;;5113888;28;20404;-81
2021/12/26 12:25:52;;;;;;;2.33;1.40;;;4.30;99.90;;;;;;5113536;28;20441;-80
2021/12/26 12:28:21;;;;;;;3.70;2.40;;;4.90;99.90;;;;;;5087692;28;20423;-79
2021/12/26 12:30:51;;;;;;;2.60;2.30;;;4.50;99.90;;;;;;5113693;28;20431;-80
2021/12/26 12:33:16;;;;;;;4.17;1.97;;;4.00;99.90;;;;;;5113439;28;20390;-79
2021/12/26 12:35:49;;;;;;;2.90;1.87;;;4.10;99.90;;;;;;5113274;28;21076;-79
2021/12/26 12:38:35;;;;;;;2.30;1.53;;;2.50;99.90;;;;;;5113317;28;20229;-79
2021/12/26 12:41:02;;;;;;;2.80;1.97;;;0.90;99.90;;;;;;5095236;28;21011;-79
2021/12/26 12:43:29;;;;;;;4.20;3.23;;;0.20;99.90;;;;;;5113505;28;20410;-79
2021/12/26 12:45:55;;;;;;;5.50;3.20;;;0.10;99.90;;;;;;5113617;28;20427;-79
2021/12/26 12:48:40;;;;;;;5.80;2.47;;;-0.20;99.90;;;;;;5113486;28;20411;-79
2021/12/26 12:51:14;;;;;;;4.23;3.33;;;-0.30;99.90;;;;;;5113128;28;20552;-79
2021/12/26 12:53:50;;;;;;;5.63;3.60;;;-0.40;99.90;;;;;;5112178;28;20450;-79
2021/12/26 12:56:33;;;;;;;5.40;3.40;;;-0.40;99.90;;;;;;5095317;28;20787;-79
2021/12/26 13:01:51;;;;;;;3.13;2.23;;;-0.80;99.90;;;;;;5113491;28;20500;-81